Latest Weather Observations for Moree

IDN60801

Issued at 4:03 pm EDT Tuesday 23 October 2018 (issued every 10 minutes, with the page automatically refreshed every 10 minutes)

About weather observations | Map of weather stations | Latest weather observations for NSW | Other Formats
Station Details ID: 053115 Name: MOREE AERO Lat: -29.49 Lon: 149.85 Height: 213.0 m
Data from the previous 72 hours. | See also: Recent months at Moree
Date/Time
EDT
Temp
°C
App
Temp
°C
Dew
Point
°C
Rel
Hum
%
Delta-T
°C
Wind Press
QNH
hPa
Press
MSL
hPa
Rain since
9am
mm
Dir  Spd
km/h
Gust
km/h
Spd
kts
Gust
kts
23/04:00pm 30.6 28.9 10.0 28 11.8 N 9 22 5 12 1012.8 1012.0 0.0
23/03:30pm 30.0 28.4 11.5 32 10.8 NNW 11 19 6 10 1013.1 1012.3 0.0
23/03:00pm 29.9 28.0 11.9 33 10.6 N 13 20 7 11 1013.5 1012.8 0.0
23/02:30pm 30.0 28.0 11.5 32 10.8 N 13 24 7 13 1014.0 1013.3 0.0
23/02:00pm 30.3 28.5 12.2 33 10.7 N 13 22 7 12 1014.5 1013.8 0.0
23/01:30pm 29.5 27.2 14.1 39 9.4 NNW 19 28 10 15 1015.0 1014.3 0.0
23/01:00pm 28.9 27.2 14.7 42 8.7 N 17 24 9 13 1015.4 1014.7 0.0
23/12:30pm 27.5 26.5 15.5 48 7.4 N 15 22 8 12 1015.8 1015.1 0.0
23/12:00pm 27.5 26.7 17.1 53 6.6 N 17 32 9 17 1016.3 1015.6 0.0
23/11:30am 26.9 25.3 17.4 56 6.0 N 22 28 12 15 1016.8 1016.0 0.0
23/11:00am 26.4 24.2 16.9 56 5.9 N 24 33 13 18 1017.0 1016.2 0.0
23/10:30am 25.6 23.6 17.3 60 5.2 NNE 24 32 13 17 1017.1 1016.3 0.0
23/10:00am 24.6 22.4 16.8 62 4.8 N 24 32 13 17 1017.4 1016.7 0.0
23/09:30am 23.6 20.9 16.6 65 4.3 NNE 26 33 14 18 1017.4 1016.7 0.0
23/09:00am 22.7 19.3 16.7 69 3.7 NNE 30 35 16 19 1017.4 1016.7 0.0
23/08:30am 21.6 18.4 16.3 72 3.2 NNE 28 33 15 18 1017.3 1016.5 0.0
23/08:00am 20.6 17.2 15.8 74 2.9 NE 28 33 15 18 1017.2 1016.4 0.0
23/07:30am 19.8 17.6 15.9 78 2.3 NE 22 28 12 15 1016.8 1016.0 0.0
23/07:00am 18.8 17.1 15.7 82 1.8 NE 19 22 10 12 1016.3 1015.6 0.0
23/06:30am 18.4 16.4 15.5 83 1.7 NE 20 24 11 13 1015.8 1015.1 0.0
23/06:00am 18.4 16.8 15.1 81 1.9 NE 17 24 9 13 1015.5 1014.8 0.0
23/05:30am 18.6 16.7 15.1 80 2.1 NE 19 22 10 12 1015.0 1014.3 0.0
23/05:00am 18.9 16.9 15.0 78 2.3 NE 19 24 10 13 1014.9 1014.2 0.0
23/04:30am 19.3 17.1 14.8 75 2.7 NE 20 28 11 15 1014.8 1014.1 0.0
23/04:00am 19.5 17.2 14.1 71 3.1 NE 19 22 10 12 1014.6 1013.9 0.0
23/03:30am 20.1 18.1 14.0 68 3.6 NE 17 20 9 11 1014.6 1013.9 0.0
23/03:00am 20.4 18.3 13.6 65 3.9 NE 17 20 9 11 1014.4 1013.7 0.0
23/02:30am 20.2 18.2 13.9 67 3.7 NE 17 26 9 14 1014.3 1013.6 0.0
23/02:00am 19.2 16.6 14.9 76 2.5 ENE 22 39 12 21 1014.3 1013.6 0.0
23/01:58am 19.0 17.4 14.9 77 2.4 ENE 17 37 9 20 1014.4 1013.7 0.0
23/01:30am 18.6 18.5 14.9 79 2.2 ENE 9 13 5 7 1014.4 1013.7 0.0
23/01:00am 18.9 19.6 14.4 75 2.6 ENE 4 11 2 6 1014.6 1013.9 0.0
23/12:30am 19.6 20.9 14.0 70 3.3 CALM 0 6 0 3 1014.5 1013.8 0.0
23/12:00am 20.2 20.3 13.9 67 3.7 NW 6 7 3 4 1014.6 1013.9 0.0
 
Date/Time
EDT
Temp
°C
App
Temp
°C
Dew
Point
°C
Rel
Hum
%
Delta-T
°C
Wind Press
QNH
hPa
Press
MSL
hPa
Rain since
9am
mm
Dir  Spd
km/h
Gust
km/h
Spd
kts
Gust
kts
22/11:30pm 20.0 19.5 12.5 62 4.3 NW 7 7 4 4 1014.7 1014.0 0.0
22/11:00pm 20.6 19.9 12.1 58 4.8 NW 7 7 4 4 1014.8 1014.1 0.0
22/10:30pm 21.0 20.5 12.7 59 4.7 NW 7 9 4 5 1014.9 1014.2 0.0
22/10:00pm 21.8 20.5 12.4 55 5.4 WNW 11 11 6 6 1015.0 1014.3 0.0
22/09:30pm 22.3 21.9 13.1 56 5.3 W 7 9 4 5 1014.9 1014.2 0.0
22/09:00pm 22.0 21.8 13.6 59 4.9 WNW 7 9 4 5 1014.6 1013.9 0.0
22/08:30pm 22.8 22.6 13.0 54 5.7 NW 6 11 3 6 1014.3 1013.6 0.0
22/08:00pm 23.5 24.1 13.1 52 6.1 N 2 6 1 3 1013.9 1013.2 0.0
22/07:30pm 24.6 24.1 11.9 45 7.3 N 6 7 3 4 1013.7 1013.0 0.0
22/07:00pm 26.8 27.2 11.3 38 8.9 CALM 0 0 0 0 1013.5 1012.8 0.0
22/06:30pm 27.7 27.8 10.0 33 10.0 CALM 0 0 0 0 1013.3 1012.5 0.0
22/06:00pm 29.0 29.6 12.0 35 10.0 CALM 0 0 0 0 1013.1 1012.3 0.0
22/05:30pm 27.3 26.7 10.5 35 9.5 N 4 9 2 5 1013.0 1012.2 0.0
22/05:00pm 27.6 26.6 10.3 34 9.8 W 6 9 3 5 1013.1 1012.3 0.0
22/04:30pm 28.2 27.0 11.7 36 9.6 W 9 15 5 8 1013.1 1012.3 0.0
22/04:00pm 28.6 27.8 12.9 38 9.3 NNE 9 15 5 8 1013.2 1012.4 0.0
22/03:30pm 28.3 27.7 13.4 40 8.9 NNW 9 15 5 8 1013.4 1012.7 0.0
22/03:00pm 28.2 26.6 12.9 38 9.1 NW 13 19 7 10 1013.8 1013.1 0.0
22/02:30pm 27.9 26.7 12.7 39 9.0 WNW 11 19 6 10 1014.2 1013.5 0.0
22/02:00pm 27.7 25.6 12.5 39 8.9 NW 15 26 8 14 1014.6 1013.9 0.0
22/01:30pm 26.9 25.9 13.3 43 8.1 NNW 11 19 6 10 1015.0 1014.3 0.0
22/01:00pm 26.6 25.9 14.4 47 7.4 ENE 11 20 6 11 1015.4 1014.7 0.0
22/12:30pm 26.2 24.7 13.0 44 7.8 N 13 22 7 12 1015.8 1015.1 0.0
22/12:00pm 25.7 25.0 14.2 49 6.9 NNE 11 17 6 9 1016.1 1015.4 0.0
22/11:30am 25.1 23.9 15.1 53 6.1 ENE 15 20 8 11 1016.5 1015.8 0.0
22/11:00am 24.6 22.9 14.7 54 5.9 NNE 17 24 9 13 1017.0 1016.2 0.0
22/10:30am 23.8 21.5 14.2 55 5.7 NE 19 26 10 14 1017.2 1016.4 0.0
22/10:00am 23.0 20.9 15.3 62 4.6 NNE 20 30 11 16 1017.2 1016.4 0.0
22/09:30am 21.9 19.3 15.0 65 4.1 NNE 22 30 12 16 1017.4 1016.7 0.0
22/09:00am 20.5 18.3 14.8 70 3.4 NE 20 26 11 14 1017.3 1016.5 0.0
22/08:30am 19.9 17.8 14.7 72 3.1 ENE 19 26 10 14 1017.1 1016.3 0.0
22/08:00am 18.6 16.8 14.5 77 2.4 E 17 22 9 12 1016.5 1015.8 0.0
22/07:30am 17.3 15.1 14.4 83 1.7 E 19 26 10 14 1016.2 1015.5 0.0
22/07:00am 16.1 14.1 13.9 87 1.3 E 17 24 9 13 1015.8 1015.1 0.0
22/06:30am 15.0 12.8 13.4 90 0.9 E 17 19 9 10 1015.2 1014.5 0.0
22/06:00am 15.0 12.8 13.4 90 0.9 E 17 24 9 13 1014.9 1014.2 0.0
22/05:30am 14.9 12.3 13.3 90 0.9 E 19 24 10 13 1014.6 1013.9 0.0
22/05:00am 15.0 12.5 13.4 90 0.9 E 19 22 10 12 1014.3 1013.6 0.0
22/04:30am 14.9 13.1 13.4 91 0.8 E 15 17 8 9 1014.1 1013.4 0.0
22/04:00am 14.8 13.4 13.3 91 0.8 ENE 13 17 7 9 1014.1 1013.4 0.0
22/03:30am 14.6 13.8 12.8 89 1.0 ENE 9 11 5 6 1014.1 1013.4 0.0
22/03:00am 15.0 15.9 13.0 88 1.1 CALM 0 0 0 0 1014.0 1013.3 0.0
22/02:30am 15.4 16.4 13.1 86 1.3 CALM 0 0 0 0 1014.3 1013.6 0.0
22/02:00am 15.8 15.5 13.3 85 1.4 E 7 11 4 6 1014.5 1013.8 0.0
22/01:30am 16.0 17.1 13.5 85 1.4 CALM 0 0 0 0 1014.8 1014.1 0.0
22/01:00am 16.7 17.8 13.6 82 1.8 CALM 0 0 0 0 1015.0 1014.3 0.0
22/12:30am 16.8 17.9 13.5 81 1.9 CALM 0 0 0 0 1015.2 1014.5 0.0
22/12:00am 16.9 16.8 13.4 80 2.0 SW 6 6 3 3 1015.3 1014.6 0.0
 
Date/Time
EDT
Temp
°C
App
Temp
°C
Dew
Point
°C
Rel
Hum
%
Delta-T
°C
Wind Press
QNH
hPa
Press
MSL
hPa
Rain since
9am
mm
Dir  Spd
km/h
Gust
km/h
Spd
kts
Gust
kts
21/11:30pm 17.5 17.5 13.6 78 2.2 SSW 6 7 3 4 1015.5 1014.8 0.0
21/11:00pm 17.7 18.7 13.2 75 2.6 CALM 0 4 0 2 1015.7 1015.0 0.0
21/10:30pm 18.4 18.8 13.7 74 2.7 SW 4 6 2 3 1015.7 1015.0 0.0
21/10:00pm 18.8 18.7 13.2 70 3.2 WSW 6 7 3 4 1015.6 1014.9 0.0
21/09:30pm 19.6 19.5 13.8 69 3.4 WSW 7 9 4 5 1015.2 1014.5 0.0
21/09:00pm 19.8 19.5 13.3 66 3.7 WSW 7 9 4 5 1015.1 1014.4 0.0
21/08:30pm 20.5 19.7 13.9 66 3.8 W 11 13 6 7 1014.6 1013.9 0.0
21/08:00pm 20.8 20.6 13.7 64 4.1 WSW 7 9 4 5 1014.3 1013.6 0.0
21/07:30pm 22.0 21.1 13.6 59 4.9 SW 11 11 6 6 1014.0 1013.3 0.0
21/07:00pm 23.1 22.2 13.6 55 5.6 SW 11 13 6 7 1013.7 1013.0 0.0
21/06:30pm 24.3 22.4 12.9 49 6.6 SSW 15 19 8 10 1013.5 1012.8 0.0
21/06:00pm 24.8 22.8 12.7 47 7.0 WSW 15 19 8 10 1013.4 1012.7 0.0
21/05:30pm 24.8 22.0 12.7 47 7.0 SW 19 26 10 14 1013.1 1012.3 0.0
21/05:00pm 24.9 22.6 13.1 48 6.9 SW 17 24 9 13 1013.0 1012.2 0.0
21/04:30pm 24.8 23.1 14.6 53 6.1 WSW 17 28 9 15 1012.9 1012.1 0.0
21/04:00pm 24.4 22.9 15.3 57 5.5 WSW 17 24 9 13 1013.1 1012.3 0.0
21/03:30pm 24.1 23.7 16.1 61 4.9 SW 13 20 7 11 1013.4 1012.7 0.0
21/03:00pm 23.2 22.1 15.3 61 4.8 WSW 15 22 8 12 1013.7 1013.0 0.0
21/02:30pm 22.4 21.8 14.5 61 4.7 WSW 11 17 6 9 1014.2 1013.5 0.0
21/02:00pm 22.2 21.1 14.3 61 4.7 WSW 13 20 7 11 1014.9 1014.2 0.0
21/01:30pm 21.5 20.5 14.6 65 4.1 WSW 13 20 7 11 1015.3 1014.6 0.0
21/01:00pm 20.7 20.2 14.8 69 3.5 WSW 11 17 6 9 1015.6 1014.9 0.0
21/12:30pm 20.3 19.2 14.4 69 3.5 W 13 15 7 8 1016.0 1015.3 0.0
21/12:00pm 20.3 19.2 14.4 69 3.5 WSW 13 17 7 9 1016.5 1015.8 0.0
21/11:30am 20.7 19.4 14.8 69 3.5 W 15 19 8 10 1016.8 1016.0 0.0
21/11:00am 21.2 19.3 15.3 69 3.5 W 19 26 10 14 1017.0 1016.2 0.0
21/10:30am 21.0 19.9 16.4 75 2.8 W 17 20 9 11 1017.0 1016.2 0.0
21/10:00am 20.1 18.2 15.1 73 3.0 NW 19 24 10 13 1017.1 1016.3 0.0
21/09:30am 18.6 16.9 14.7 78 2.3 NE 17 22 9 12 1016.4 1015.7 0.0
21/09:00am 17.6 15.4 14.3 81 1.9 ENE 19 24 10 13 1015.5 1014.8 18.0
21/08:30am 17.0 16.7 14.3 84 1.6 NE 9 15 5 8 1016.4 1015.7 18.0
21/08:00am 16.3 14.7 14.0 86 1.3 ENE 15 19 8 10 1016.1 1015.4 18.0
21/07:30am 15.9 14.0 14.1 89 1.0 ENE 17 20 9 11 1015.8 1015.1 18.0
21/07:00am 15.7 14.0 13.7 88 1.1 ENE 15 20 8 11 1015.8 1015.1 18.0
21/06:36am 15.7 13.0 13.5 87 1.2 SE 20 26 11 14 1015.3 1014.6 18.0
21/06:30am 15.7 13.6 13.5 87 1.2 ESE 17 20 9 11 1015.6 1014.9 18.0
21/06:15am 15.6 15.5 13.4 87 1.2 SSE 6 11 3 6 1015.8 1015.1 17.4
21/06:00am 15.8 14.8 13.5 86 1.3 SSE 11 13 6 7 1015.5 1014.8 16.8
21/05:30am 15.5 12.7 13.3 87 1.2 S 20 28 11 15 1015.1 1014.4 16.8
21/05:02am 15.9 11.2 13.2 84 1.5 SSW 30 37 16 20 1015.1 1014.4 16.8
21/05:00am 16.0 11.3 13.3 84 1.5 SSW 30 37 16 20 1015.1 1014.4 16.8
21/04:30am 17.5 16.7 16.0 91 0.9 SSW 15 22 8 12 1014.9 1014.2 16.8
21/04:28am 17.5 16.7 16.0 91 0.9 SSW 15 22 8 12 1014.9 1014.2 16.8
21/04:00am 17.6 16.7 15.9 90 1.0 S 15 20 8 11 1014.3 1013.6 16.6
21/03:30am 17.4 16.3 15.4 88 1.2 W 15 19 8 10 1015.1 1014.4 16.6
21/03:00am 17.4 15.1 15.6 89 1.1 W 22 26 12 14 1015.2 1014.5 16.6
21/02:57am 17.2 15.2 15.4 89 1.1 WSW 20 26 11 14 1015.0 1014.3 16.6
21/02:30am 17.5 17.1 15.1 86 1.4 SSE 11 13 6 7 1013.0 1012.2 16.6
21/02:00am 17.8 18.7 15.1 84 1.6 NE 4 11 2 6 1012.3 1011.5 16.6
21/01:30am 18.2 17.4 15.1 82 1.8 N 13 17 7 9 1012.9 1012.1 16.6
21/01:00am 18.8 15.7 14.5 76 2.5 N 24 41 13 22 1013.5 1012.8 16.6
21/12:30am 18.5 15.8 15.6 83 1.7 E 24 32 13 17 1013.0 1012.2 16.6
21/12:00am 18.7 17.6 15.2 80 2.1 ENE 15 17 8 9 1014.8 1014.1 16.6
 
Date/Time
EDT
Temp
°C
App
Temp
°C
Dew
Point
°C
Rel
Hum
%
Delta-T
°C
Wind Press
QNH
hPa
Press
MSL
hPa
Rain since
9am
mm
Dir  Spd
km/h
Gust
km/h
Spd
kts
Gust
kts
20/11:30pm 18.6 17.4 15.1 80 2.1 NE 15 24 8 13 1015.8 1015.1 16.6
20/11:00pm 18.4 16.7 15.8 85 1.6 NE 19 26 10 14 1015.4 1014.7 16.6
20/10:30pm 18.3 17.5 16.1 87 1.3 ENE 15 19 8 10 1015.8 1015.1 16.6
20/10:00pm 18.3 16.2 16.3 88 1.2 E 22 30 12 16 1015.8 1015.1 16.4
20/09:30pm 18.5 16.7 16.1 86 1.4 E 20 30 11 16 1016.5 1015.8 16.2
20/09:00pm 18.6 17.3 16.8 89 1.1 ENE 19 24 10 13 1016.8 1016.0 16.0
20/08:30pm 18.8 17.9 16.9 89 1.2 NE 17 22 9 12 1016.5 1015.8 15.0
20/08:00pm 19.0 17.8 17.1 89 1.2 ENE 19 24 10 13 1016.4 1015.7 13.8
20/07:30pm 19.0 17.7 17.3 90 1.0 S 20 28 11 15 1016.3 1015.6 11.8
20/07:09pm 19.4 18.2 17.5 89 1.2 S 20 32 11 17 1015.3 1014.6 10.2
20/07:00pm 19.3 16.6 17.6 90 1.0 S 28 32 15 17 1014.9 1014.2 9.8
20/06:30pm 19.6 17.4 17.9 90 1.1 SW 26 35 14 19 1014.4 1013.7 6.6
20/06:21pm 19.7 16.3 17.8 89 1.2 SW 32 43 17 23 1014.3 1013.6 5.6
20/06:17pm 19.7 16.2 18.0 90 1.1 SW 33 46 18 25 1014.2 1013.5 5.2
20/06:00pm 19.4 13.7 17.7 90 1.1 SW 44 56 24 30 1012.9 1012.1 4.4
20/05:48pm 19.6 13.5 17.6 88 1.2 SW 46 57 25 31 1013.2 1012.4 0.8
20/05:30pm 22.5 14.6 14.9 62 4.5 WSW 50 70 27 38 1012.1 1011.3 0.0
20/05:26pm 23.8 18.4 12.8 50 6.4 WNW 33 67 18 36 1012.2 1011.4 0.0
20/05:23pm 28.9 25.7 11.9 35 9.9 NNW 20 61 11 33 1012.1 1011.3 0.0
20/05:00pm 30.6 27.4 11.1 30 11.4 N 19 28 10 15 1010.6 1009.9 0.0
20/04:30pm 31.1 27.8 11.5 30 11.5 N 20 30 11 16 1009.9 1009.2 0.0

Other Formats:

Comma delimited format used in spreadsheet applications
http://www.bom.gov.au/fwo/IDN60801/IDN60801.95527.axf

JavaScript Object Notation format (JSON) in row-major order
http://www.bom.gov.au/fwo/IDN60801/IDN60801.95527.json